TimeMDT,TemperatureF,Dew PointF,Humidity,Sea Level PressureIn,VisibilityMPH,Wind Direction,Wind SpeedMPH,Gust SpeedMPH,PrecipitationIn,Events,Conditions,WindDirDegrees,DateUTC
12:15 AM,31.8,13.1,46,30.18,10.0,WNW,5.8,-,N/A,,Clear,300,2013-03-12 06:15:00
12:35 AM,31.6,13.5,47,30.18,10.0,WNW,4.6,-,N/A,,Clear,290,2013-03-12 06:35:00
12:55 AM,31.1,13.3,48,30.19,10.0,Calm,Calm,-,N/A,,Clear,0,2013-03-12 06:55:00
1:15 AM,27.5,13.8,56,30.19,10.0,Calm,Calm,-,N/A,,Clear,0,2013-03-12 07:15:00
1:35 AM,25.3,12.7,59,30.19,10.0,Calm,Calm,-,N/A,,Clear,0,2013-03-12 07:35:00
1:55 AM,24.4,10.8,56,30.19,10.0,NW,4.6,-,N/A,,Clear,320,2013-03-12 07:55:00
2:15 AM,23.7,11.1,59,30.20,10.0,WNW,3.5,-,N/A,,Clear,300,2013-03-12 08:15:00
2:35 AM,23.9,11.7,60,30.20,10.0,WNW,4.6,-,N/A,,Clear,290,2013-03-12 08:35:00
2:55 AM,22.8,10.9,60,30.20,10.0,Calm,Calm,-,N/A,,Clear,0,2013-03-12 08:55:00
3:15 AM,23.9,10.0,56,30.20,10.0,North,4.6,-,N/A,,Clear,350,2013-03-12 09:15:00
3:35 AM,21.6,9.5,60,30.20,10.0,NW,3.5,-,N/A,,Clear,310,2013-03-12 09:35:00
3:55 AM,22.1,10.0,60,30.20,10.0,Calm,Calm,-,N/A,,Clear,0,2013-03-12 09:55:00
4:15 AM,21.4,11.3,65,30.20,10.0,NW,4.6,-,N/A,,Clear,310,2013-03-12 10:15:00
4:35 AM,21.6,10.6,63,30.20,10.0,NW,4.6,-,N/A,,Clear,320,2013-03-12 10:35:00
4:55 AM,22.6,12.0,64,30.20,10.0,NNW,4.6,-,N/A,,Clear,340,2013-03-12 10:55:00
5:15 AM,19.8,11.1,69,30.21,10.0,NNW,5.8,-,N/A,,Clear,330,2013-03-12 11:15:00
5:35 AM,21.0,12.4,69,30.22,10.0,NW,6.9,-,N/A,,Clear,310,2013-03-12 11:35:00
5:55 AM,24.6,13.5,63,30.23,10.0,WNW,8.1,-,N/A,,Clear,300,2013-03-12 11:55:00
6:15 AM,24.1,14.2,66,30.23,10.0,WNW,6.9,-,N/A,,Clear,300,2013-03-12 12:15:00
6:55 AM,21.4,12.2,68,30.24,10.0,NW,8.1,-,N/A,,Clear,320,2013-03-12 12:55:00
7:15 AM,20.1,12.0,71,30.24,10.0,NW,6.9,-,N/A,,Clear,310,2013-03-12 13:15:00
7:35 AM,18.5,10.4,71,30.25,10.0,NW,6.9,-,N/A,,Clear,320,2013-03-12 13:35:00
7:55 AM,20.7,12.2,70,30.26,10.0,NW,6.9,-,N/A,,Clear,320,2013-03-12 13:55:00
8:15 AM,23.0,12.2,63,30.27,10.0,NW,6.9,-,N/A,,Clear,320,2013-03-12 14:15:00
8:35 AM,28.0,15.6,60,30.27,10.0,NW,8.1,-,N/A,,Clear,310,2013-03-12 14:35:00
8:55 AM,31.1,16.5,55,30.28,10.0,NW,10.4,-,N/A,,Clear,310,2013-03-12 14:55:00
9:15 AM,34.0,18.1,52,30.30,10.0,NW,9.2,19.6,N/A,,Clear,320,2013-03-12 15:15:00
9:35 AM,37.6,18.3,46,30.30,10.0,North,6.9,-,N/A,,Clear,350,2013-03-12 15:35:00
9:55 AM,41.7,19.4,41,30.30,10.0,NNW,5.8,-,N/A,,Clear,330,2013-03-12 15:55:00
10:15 AM,46.0,20.1,36,30.29,10.0,North,3.5,-,N/A,,Clear,360,2013-03-12 16:15:00
10:35 AM,48.4,22.3,36,30.28,10.0,NW,4.6,-,N/A,,Clear,310,2013-03-12 16:35:00
10:55 AM,50.9,22.6,33,30.30,10.0,North,10.4,16.1,N/A,,Clear,360,2013-03-12 16:55:00
11:15 AM,52.7,23.0,31,30.30,10.0,North,15.0,19.6,N/A,,Clear,350,2013-03-12 17:15:00
11:35 AM,53.4,23.0,31,30.30,10.0,NW,9.2,17.3,N/A,,Clear,320,2013-03-12 17:35:00
11:55 AM,54.7,22.8,29,30.30,10.0,NNW,11.5,19.6,N/A,,Clear,340,2013-03-12 17:55:00
12:15 PM,54.5,22.8,29,30.29,10.0,WNW,4.6,16.1,N/A,,Clear,290,2013-03-12 18:15:00
12:35 PM,57.2,22.8,27,30.29,10.0,North,5.8,16.1,N/A,,Clear,350,2013-03-12 18:35:00
12:55 PM,58.1,22.5,25,30.28,10.0,NW,8.1,17.3,N/A,,Clear,310,2013-03-12 18:55:00
1:15 PM,58.1,21.4,24,30.28,10.0,NNW,11.5,-,N/A,,Clear,330,2013-03-12 19:15:00
1:35 PM,59.7,21.0,22,30.27,10.0,NNW,3.5,-,N/A,,Clear,340,2013-03-12 19:35:00
1:55 PM,61.2,20.7,21,30.26,10.0,North,9.2,18.4,N/A,,Clear,360,2013-03-12 19:55:00
2:15 PM,61.3,20.1,20,30.24,10.0,North,9.2,-,N/A,,Clear,360,2013-03-12 20:15:00
2:35 PM,61.3,19.4,20,30.24,10.0,NW,3.5,16.1,N/A,,Clear,310,2013-03-12 20:35:00
2:55 PM,62.1,19.4,19,30.23,10.0,NNE,8.1,-,N/A,,Clear,20,2013-03-12 20:55:00
3:15 PM,62.8,19.0,19,30.23,10.0,NNE,8.1,-,N/A,,Clear,20,2013-03-12 21:15:00
3:35 PM,63.1,18.3,18,30.23,10.0,North,5.8,-,N/A,,Clear,350,2013-03-12 21:35:00
3:55 PM,63.9,18.3,17,30.23,10.0,NNW,10.4,16.1,N/A,,Clear,340,2013-03-12 21:55:00
4:15 PM,62.8,17.6,17,30.23,10.0,NNE,3.5,10.4,N/A,,Clear,30,2013-03-12 22:15:00
4:35 PM,64.0,18.3,17,30.23,10.0,NNW,9.2,19.6,N/A,,Clear,340,2013-03-12 22:35:00
4:55 PM,63.9,17.8,17,30.22,10.0,NW,11.5,16.1,N/A,,Clear,310,2013-03-12 22:55:00
5:15 PM,62.8,16.7,17,30.22,10.0,North,5.8,-,N/A,,Clear,350,2013-03-12 23:15:00
5:35 PM,63.1,16.9,17,30.22,10.0,NNW,10.4,17.3,N/A,,Clear,340,2013-03-12 23:35:00
5:55 PM,62.2,17.4,18,30.22,10.0,NNW,11.5,17.3,N/A,,Clear,330,2013-03-12 23:55:00
6:15 PM,61.9,17.2,18,30.23,10.0,North,10.4,16.1,N/A,,Clear,350,2013-03-13 00:15:00
6:35 PM,60.8,17.6,19,30.23,10.0,North,10.4,-,N/A,,Clear,350,2013-03-13 00:35:00
6:55 PM,59.7,16.2,18,30.24,10.0,North,8.1,-,N/A,,Clear,10,2013-03-13 00:55:00
7:15 PM,57.4,16.5,20,30.24,10.0,North,6.9,-,N/A,,Clear,360,2013-03-13 01:15:00
7:35 PM,51.6,14.9,23,30.26,10.0,NW,4.6,-,N/A,,Clear,320,2013-03-13 01:35:00
7:55 PM,48.0,14.7,26,30.26,10.0,NW,10.4,-,N/A,,Clear,320,2013-03-13 01:55:00
8:15 PM,48.2,16.3,28,30.27,10.0,NW,15.0,-,N/A,,Clear,310,2013-03-13 02:15:00
8:35 PM,48.4,17.1,29,30.28,10.0,NW,12.7,-,N/A,,Clear,310,2013-03-13 02:35:00
8:55 PM,46.6,17.2,31,30.29,10.0,North,4.6,-,N/A,,Clear,360,2013-03-13 02:55:00
9:15 PM,42.8,15.8,34,30.30,10.0,NNW,4.6,-,N/A,,Clear,330,2013-03-13 03:15:00
9:35 PM,37.0,15.4,41,30.30,10.0,NW,4.6,-,N/A,,Clear,320,2013-03-13 03:35:00
9:55 PM,35.4,16.2,46,30.31,10.0,Calm,Calm,-,N/A,,Clear,0,2013-03-13 03:55:00
10:15 PM,33.8,12.7,42,30.32,10.0,Calm,Calm,-,N/A,,Clear,0,2013-03-13 04:15:00
10:35 PM,37.9,19.0,47,30.32,10.0,NW,4.6,-,N/A,,Clear,310,2013-03-13 04:35:00
10:55 PM,37.2,15.3,41,30.32,10.0,Calm,Calm,-,N/A,,Clear,0,2013-03-13 04:55:00
11:15 PM,36.1,18.0,48,30.33,10.0,Calm,Calm,-,N/A,,Clear,0,2013-03-13 05:15:00
11:55 PM,34.0,17.6,51,30.33,10.0,Calm,Calm,-,N/A,,Clear,0,2013-03-13 05:55:00